createdAt,value
2023-04-07T00:00:47.144Z,95304.75
2023-04-07T00:04:29.897Z,95309.66
2023-04-07T00:08:12.605Z,95307.34
2023-04-07T00:11:56.247Z,95307.81
2023-04-07T00:15:40.440Z,95308.47
2023-04-07T00:19:23.126Z,95305.88
2023-04-07T00:23:05.746Z,95306.88
2023-04-07T00:26:48.366Z,95297.94
2023-04-07T00:30:31.022Z,95306.28
2023-04-07T00:34:15.490Z,95301.75
2023-04-07T00:37:58.333Z,95310.22
2023-04-07T00:41:41.106Z,95307.78
2023-04-07T00:45:23.825Z,95306.06
2023-04-07T00:49:09.923Z,95302.22
2023-04-07T00:52:56.997Z,95288.06
2023-04-07T00:56:40.917Z,95289.72
2023-04-07T01:00:24.522Z,95281.88
2023-04-07T01:04:10.931Z,95282.53
2023-04-07T01:07:59.570Z,95278.00
2023-04-07T01:11:46.268Z,95273.13
2023-04-07T01:15:29.196Z,95282.19
2023-04-07T01:19:17.108Z,95283.03
2023-04-07T01:23:03.674Z,95279.66
2023-04-07T01:26:48.184Z,95270.13
2023-04-07T01:30:33.523Z,95266.63
2023-04-07T01:34:16.623Z,95262.09
2023-04-07T01:38:00.445Z,95273.78
2023-04-07T01:41:43.486Z,95278.59
2023-04-07T01:45:27.971Z,95275.69
2023-04-07T01:49:13.080Z,95280.13
2023-04-07T01:52:55.953Z,95272.38
2023-04-07T01:56:38.634Z,95271.63
2023-04-07T02:00:21.301Z,95266.56
2023-04-07T02:04:08.225Z,95261.56
2023-04-07T02:07:55.019Z,95259.88
2023-04-07T02:11:38.724Z,95260.56
2023-04-07T02:15:21.862Z,95268.38
2023-04-07T02:19:05.140Z,95263.28
2023-04-07T02:22:47.859Z,95265.25
2023-04-07T02:26:36.278Z,95266.41
2023-04-07T02:30:20.035Z,95262.19
2023-04-07T02:34:02.692Z,95255.53
2023-04-07T02:37:45.761Z,95259.28
2023-04-07T02:41:28.542Z,95267.09
2023-04-07T02:45:13.354Z,95258.94
2023-04-07T02:48:56.014Z,95261.88
2023-04-07T02:52:38.665Z,95261.38
2023-04-07T02:56:21.379Z,95254.88
2023-04-07T03:00:04.577Z,95261.84
2023-04-07T03:03:48.682Z,95257.19
2023-04-07T03:07:32.060Z,95258.53
2023-04-07T03:11:14.741Z,95260.94
2023-04-07T03:14:57.578Z,95262.75
2023-04-07T03:18:40.254Z,95264.50
2023-04-07T03:22:24.308Z,95254.41
2023-04-07T03:26:07.117Z,95256.84
2023-04-07T03:29:51.221Z,95243.19
2023-04-07T03:33:33.850Z,95241.56
2023-04-07T03:37:16.538Z,95240.06
2023-04-07T03:41:00.661Z,95236.94
2023-04-07T03:44:43.565Z,95237.41
2023-04-07T03:48:26.986Z,95235.47
2023-04-07T03:52:11.340Z,95224.41
2023-04-07T03:55:54.013Z,95229.56
2023-04-07T03:59:38.199Z,95227.22
2023-04-07T04:03:21.096Z,95229.22
2023-04-07T04:07:03.822Z,95220.94
2023-04-07T04:10:46.503Z,95221.97
2023-04-07T04:14:29.154Z,95223.53
2023-04-07T04:18:13.171Z,95213.72
2023-04-07T04:21:55.850Z,95211.94
2023-04-07T04:25:39.534Z,95224.47
2023-04-07T04:29:22.259Z,95217.84
2023-04-07T04:33:04.936Z,95220.66
2023-04-07T04:36:49.614Z,95221.00
2023-04-07T04:40:32.272Z,95218.56
2023-04-07T04:44:14.944Z,95214.88
2023-04-07T04:47:57.637Z,95210.34
2023-04-07T04:51:40.244Z,95216.38
2023-04-07T04:55:24.211Z,95215.38
2023-04-07T04:59:07.151Z,95220.25
2023-04-07T05:02:49.994Z,95213.25
2023-04-07T05:06:32.846Z,95199.59
2023-04-07T05:10:16.162Z,95207.41
2023-04-07T05:14:00.376Z,95199.91
2023-04-07T05:17:43.079Z,95201.88
2023-04-07T05:21:27.081Z,95208.72
2023-04-07T05:25:10.854Z,95206.75
2023-04-07T05:28:53.501Z,95207.31
2023-04-07T05:32:37.846Z,95209.50
2023-04-07T05:36:20.542Z,95212.47
2023-04-07T05:40:03.218Z,95210.84
2023-04-07T05:43:45.881Z,95207.22
2023-04-07T05:47:28.531Z,95205.19
2023-04-07T05:51:15.524Z,95203.91
2023-04-07T05:54:58.142Z,95205.41
2023-04-07T05:58:40.851Z,95197.38
2023-04-07T06:02:23.557Z,95198.66
2023-04-07T06:06:06.565Z,95191.94
2023-04-07T06:09:50.548Z,95197.38
2023-04-07T06:13:33.190Z,95183.63
2023-04-07T06:17:15.995Z,95176.44
2023-04-07T06:20:58.694Z,95178.31
2023-04-07T06:24:41.525Z,95175.72
2023-04-07T06:28:25.567Z,95164.34
2023-04-07T06:32:08.274Z,95158.88
2023-04-07T06:35:51.151Z,95169.50
2023-04-07T06:39:34.081Z,95160.69
2023-04-07T06:43:16.817Z,95162.75
2023-04-07T06:47:00.789Z,95159.25
2023-04-07T06:50:43.422Z,95156.09
2023-04-07T06:54:26.057Z,95153.66
2023-04-07T06:58:08.798Z,95163.50
2023-04-07T07:01:53.781Z,95153.56
2023-04-07T07:05:37.854Z,95155.38
2023-04-07T07:09:20.538Z,95159.59
2023-04-07T07:13:03.275Z,95156.97
2023-04-07T07:16:45.899Z,95159.41
2023-04-07T07:20:28.516Z,95158.22
2023-04-07T07:24:12.548Z,95166.63
2023-04-07T07:27:55.158Z,95165.44
2023-04-07T07:31:37.909Z,95161.09
2023-04-07T07:35:20.866Z,95161.09
2023-04-07T07:39:03.498Z,95162.72
2023-04-07T07:42:48.224Z,95171.44
2023-04-07T07:46:30.894Z,95170.06
2023-04-07T07:50:13.583Z,95169.81
2023-04-07T07:53:56.236Z,95169.94
2023-04-07T07:57:38.855Z,95173.19
2023-04-07T08:01:22.882Z,95170.94
2023-04-07T08:05:06.167Z,95165.69
2023-04-07T08:08:48.794Z,95167.44
2023-04-07T08:12:31.488Z,95164.41
2023-04-07T08:16:14.125Z,95153.25
2023-04-07T08:19:58.215Z,95156.19
2023-04-07T08:23:40.955Z,95164.38
2023-04-07T08:27:23.564Z,95149.09
2023-04-07T08:31:06.500Z,95153.47
2023-04-07T08:34:49.121Z,95160.56
2023-04-07T08:38:33.100Z,95149.50
2023-04-07T08:42:16.276Z,95144.56
2023-04-07T08:45:59.144Z,95152.69
2023-04-07T08:49:42.342Z,95144.63
2023-04-07T08:53:30.563Z,95146.06
2023-04-07T08:57:15.535Z,95152.78
2023-04-07T09:00:58.321Z,95152.59
2023-04-07T09:04:40.989Z,95145.53
2023-04-07T09:08:23.629Z,95137.06
2023-04-07T09:12:06.478Z,95134.63
2023-04-07T09:15:50.509Z,95143.13
2023-04-07T09:19:34.292Z,95139.88
2023-04-07T09:23:29.230Z,95149.97
2023-04-07T09:27:15.193Z,95140.28
2023-04-07T09:31:00.892Z,95131.81
2023-04-07T09:34:43.548Z,95123.31
2023-04-07T09:38:34.335Z,95123.31
2023-04-07T09:42:17.042Z,95126.34
2023-04-07T09:46:13.334Z,95120.69
2023-04-07T09:49:57.020Z,95120.50
2023-04-07T09:53:48.722Z,95105.94
2023-04-07T09:57:31.769Z,95109.75
2023-04-07T10:01:17.930Z,95107.53
2023-04-07T10:05:00.895Z,95109.53
2023-04-07T10:08:44.624Z,95111.13
2023-04-07T10:12:28.004Z,95105.22
2023-04-07T10:16:10.744Z,95109.03
2023-04-07T10:19:54.907Z,95109.81
2023-04-07T10:23:50.286Z,95103.47
2023-04-07T10:27:34.645Z,95099.41
2023-04-07T10:31:17.916Z,95107.84
2023-04-07T10:35:02.185Z,95099.53
2023-04-07T10:39:23.625Z,95099.94
2023-04-07T10:43:09.506Z,95106.00
2023-04-07T10:47:05.226Z,95096.88
2023-04-07T10:51:17.869Z,95097.50
2023-04-07T10:55:36.768Z,95091.00
2023-04-07T10:59:23.989Z,95093.38
2023-04-07T11:03:13.153Z,95094.94
2023-04-07T11:06:56.333Z,95092.63
2023-04-07T11:10:40.467Z,95098.81
2023-04-07T11:14:28.196Z,95084.81
2023-04-07T11:18:21.098Z,95088.13
2023-04-07T11:22:28.526Z,95081.47
2023-04-07T11:26:15.465Z,95082.84
2023-04-07T11:29:58.221Z,95078.47
2023-04-07T11:33:41.161Z,95080.16
2023-04-07T11:37:24.945Z,95080.69
2023-04-07T11:41:16.634Z,95078.06
2023-04-07T11:44:59.272Z,95075.09
2023-04-07T11:48:43.727Z,95074.28
2023-04-07T11:52:26.910Z,95068.75
2023-04-07T11:56:12.486Z,95070.88
2023-04-07T12:00:08.658Z,95069.13
2023-04-07T12:03:59.383Z,95060.81
2023-04-07T12:07:54.284Z,95052.22
2023-04-07T12:11:37.587Z,95053.97
2023-04-07T12:15:22.513Z,95060.50
2023-04-07T12:19:05.531Z,95053.72
2023-04-07T12:22:48.180Z,95054.78
2023-04-07T12:26:30.935Z,95057.06
2023-04-07T12:30:14.393Z,95064.75
2023-04-07T12:33:58.623Z,95062.69
2023-04-07T12:37:41.239Z,95063.16
2023-04-07T12:41:23.950Z,95060.38
2023-04-07T12:45:07.825Z,95059.53
2023-04-07T12:48:51.422Z,95072.38
2023-04-07T12:52:36.223Z,95067.84
2023-04-07T12:56:22.291Z,95065.44
2023-04-07T13:00:06.010Z,95068.38
2023-04-07T13:03:53.212Z,95073.50
2023-04-07T13:07:38.602Z,95066.56
2023-04-07T13:11:22.088Z,95066.25
2023-04-07T13:15:05.490Z,95070.28
2023-04-07T13:18:48.510Z,95077.22
2023-04-07T13:22:32.168Z,95065.94
2023-04-07T13:26:16.494Z,95062.09
2023-04-07T13:29:59.219Z,95060.25
2023-04-07T13:33:41.828Z,95064.47
2023-04-07T13:37:24.526Z,95060.72
2023-04-07T13:41:07.222Z,95052.91
2023-04-07T13:44:51.316Z,95060.38
2023-04-07T13:48:33.984Z,95054.31
2023-04-07T13:52:17.795Z,95061.38
2023-04-07T13:56:01.036Z,95058.06
2023-04-07T13:59:43.742Z,95066.28
2023-04-07T14:03:28.165Z,95054.94
2023-04-07T14:07:11.318Z,95063.41
2023-04-07T14:10:54.057Z,95071.47
2023-04-07T14:14:37.641Z,95065.03
2023-04-07T14:18:20.491Z,95074.41
2023-04-07T14:22:04.503Z,95057.50
2023-04-07T14:25:47.635Z,95063.44
2023-04-07T14:29:30.325Z,95070.31
2023-04-07T14:33:12.999Z,95062.34
2023-04-07T14:36:56.290Z,95058.03
2023-04-07T14:40:40.456Z,95063.31
2023-04-07T14:44:23.136Z,95070.00
2023-04-07T14:48:06.365Z,95059.41
2023-04-07T14:51:49.272Z,95064.31
2023-04-07T14:55:32.409Z,95064.75
2023-04-07T14:59:16.434Z,95063.00
2023-04-07T15:02:59.282Z,95065.72
2023-04-07T15:06:42.434Z,95064.19
2023-04-07T15:10:25.268Z,95077.75
2023-04-07T15:14:07.895Z,95077.44
2023-04-07T15:17:52.039Z,95085.59
2023-04-07T15:21:34.745Z,95082.66
2023-04-07T15:25:17.587Z,95080.91
2023-04-07T15:29:00.229Z,95086.25
2023-04-07T15:32:44.299Z,95076.38
2023-04-07T15:36:28.316Z,95079.09
2023-04-07T15:40:11.768Z,95075.66
2023-04-07T15:43:54.839Z,95083.31
2023-04-07T15:47:37.612Z,95087.19
2023-04-07T15:51:20.800Z,95088.56
2023-04-07T15:55:05.553Z,95087.19
2023-04-07T15:58:48.187Z,95088.59
2023-04-07T16:02:30.954Z,95092.03
2023-04-07T16:06:13.742Z,95097.53
2023-04-07T16:09:56.865Z,95096.78
2023-04-07T16:13:40.838Z,95104.38
2023-04-07T16:17:23.484Z,95105.63
2023-04-07T16:21:07.854Z,95106.28
2023-04-07T16:24:50.482Z,95115.00
2023-04-07T16:28:33.108Z,95111.81
2023-04-07T16:32:17.096Z,95114.63
2023-04-07T16:35:59.763Z,95111.00
2023-04-07T16:39:42.389Z,95117.94
2023-04-07T16:43:25.352Z,95126.09
2023-04-07T16:47:08.151Z,95124.31
2023-04-07T16:50:52.550Z,95122.44
2023-04-07T16:54:36.060Z,95123.78
2023-04-07T16:58:19.625Z,95134.66
2023-04-07T17:02:08.439Z,95130.84
2023-04-07T17:05:52.655Z,95130.91
2023-04-07T17:09:35.388Z,95139.28
2023-04-07T17:13:18.077Z,95144.97
2023-04-07T17:17:00.857Z,95149.81
2023-04-07T17:20:43.591Z,95148.00
2023-04-07T17:24:27.673Z,95152.66
2023-04-07T17:28:10.406Z,95156.91
2023-04-07T17:31:53.008Z,95153.03
2023-04-07T17:35:36.081Z,95165.22
2023-04-07T17:39:21.288Z,95161.81
2023-04-07T17:43:05.400Z,95168.09
2023-04-07T17:46:48.375Z,95170.91
2023-04-07T17:50:31.143Z,95177.00
2023-04-07T17:54:13.808Z,95183.88
2023-04-07T17:58:00.671Z,95182.25
2023-04-07T18:01:44.800Z,95187.91
2023-04-07T18:05:30.689Z,95188.91
2023-04-07T18:09:13.622Z,95200.44
2023-04-07T18:12:56.542Z,95202.06
2023-04-07T18:16:39.325Z,95208.94
2023-04-07T18:20:23.306Z,95207.34
2023-04-07T18:24:06.157Z,95221.91
2023-04-07T18:27:48.789Z,95220.50
2023-04-07T18:31:31.555Z,95225.56
2023-04-07T18:35:14.282Z,95227.19
2023-04-07T18:38:58.315Z,95236.06
2023-04-07T18:42:41.123Z,95234.06
2023-04-07T18:46:23.845Z,95234.25
2023-04-07T18:50:07.557Z,95236.47
2023-04-07T18:53:52.350Z,95246.97
2023-04-07T18:57:36.573Z,95246.56
2023-04-07T19:01:19.295Z,95254.47
2023-04-07T19:05:03.703Z,95254.69
2023-04-07T19:08:46.400Z,95260.34
2023-04-07T19:12:29.401Z,95266.22
2023-04-07T19:16:13.506Z,95257.31
2023-04-07T19:19:56.297Z,95266.41
2023-04-07T19:23:40.655Z,95265.81
2023-04-07T19:27:23.734Z,95271.69
2023-04-07T19:31:07.136Z,95278.78
2023-04-07T19:34:51.222Z,95291.50
2023-04-07T19:38:33.928Z,95291.88
2023-04-07T19:42:16.615Z,95294.28
2023-04-07T19:45:59.301Z,95291.88
2023-04-07T19:49:42.177Z,95293.47
2023-04-07T19:53:28.301Z,95290.22
2023-04-07T19:57:11.001Z,95297.88
2023-04-07T20:00:55.000Z,95296.25
2023-04-07T20:04:37.672Z,95296.25
2023-04-07T20:08:20.613Z,95299.88
2023-04-07T20:12:04.681Z,95306.16
2023-04-07T20:15:49.036Z,95306.53
2023-04-07T20:19:31.676Z,95308.56
2023-04-07T20:23:15.952Z,95302.28
2023-04-07T20:26:58.709Z,95299.47
2023-04-07T20:30:42.724Z,95304.91
2023-04-07T20:34:25.420Z,95314.41
2023-04-07T20:38:08.052Z,95310.34
2023-04-07T20:41:50.758Z,95309.53
2023-04-07T20:45:33.926Z,95315.56
2023-04-07T20:49:17.952Z,95317.97
2023-04-07T20:53:00.686Z,95311.50
2023-04-07T20:56:44.711Z,95315.19
2023-04-07T21:00:27.328Z,95309.50
2023-04-07T21:04:10.756Z,95317.16
2023-04-07T21:07:54.748Z,95312.25
2023-04-07T21:11:37.385Z,95316.63
2023-04-07T21:15:23.212Z,95327.13
2023-04-07T21:19:06.266Z,95314.19
2023-04-07T21:22:49.066Z,95321.19
2023-04-07T21:26:33.077Z,95325.38
2023-04-07T21:30:16.625Z,95316.84
2023-04-07T21:33:59.306Z,95326.53
2023-04-07T21:37:41.921Z,95331.31
2023-04-07T21:41:24.566Z,95330.88
2023-04-07T21:45:10.574Z,95323.38
2023-04-07T21:48:53.175Z,95321.31
2023-04-07T21:52:35.819Z,95334.00
2023-04-07T21:56:18.497Z,95323.09
2023-04-07T22:00:01.191Z,95328.72
2023-04-07T22:03:45.776Z,95328.47
2023-04-07T22:07:28.481Z,95322.88
2023-04-07T22:11:11.469Z,95321.00
2023-04-07T22:14:54.097Z,95331.47
2023-04-07T22:18:36.802Z,95334.34
2023-04-07T22:22:20.800Z,95331.00
2023-04-07T22:26:03.385Z,95329.53
2023-04-07T22:29:46.020Z,95334.91
2023-04-07T22:33:29.115Z,95333.72
2023-04-07T22:37:11.763Z,95344.94
2023-04-07T22:40:55.806Z,95345.31
2023-04-07T22:44:38.478Z,95346.03
2023-04-07T22:48:21.073Z,95343.00
2023-04-07T22:52:04.008Z,95346.34
2023-04-07T22:55:47.137Z,95348.59
2023-04-07T22:59:31.329Z,95342.84
2023-04-07T23:03:14.943Z,95353.16
2023-04-07T23:06:57.745Z,95357.69
2023-04-07T23:10:40.446Z,95362.59
2023-04-07T23:14:23.070Z,95358.28
2023-04-07T23:18:07.401Z,95369.88
2023-04-07T23:21:50.078Z,95368.88
2023-04-07T23:25:32.780Z,95369.66
2023-04-07T23:29:15.561Z,95379.66
2023-04-07T23:32:58.216Z,95376.28
2023-04-07T23:36:42.576Z,95380.88
2023-04-07T23:40:25.347Z,95376.41
2023-04-07T23:44:08.336Z,95379.09
2023-04-07T23:47:51.028Z,95369.34
2023-04-07T23:51:33.728Z,95374.44
2023-04-07T23:55:17.850Z,95376.38
2023-04-07T23:59:00.602Z,95374.94
